createdAt,value
2023-04-20T00:05:24.247Z,100.00
2023-04-20T00:15:26.479Z,100.00
2023-04-20T00:25:30.082Z,100.00
2023-04-20T00:35:32.318Z,100.00
2023-04-20T00:45:34.392Z,100.00
2023-04-20T00:55:37.360Z,100.00
2023-04-20T01:05:39.747Z,100.00
2023-04-20T01:15:42.088Z,100.00
2023-04-20T01:25:44.327Z,100.00
2023-04-20T01:35:46.527Z,100.00
2023-04-20T01:45:48.915Z,100.00
2023-04-20T01:55:51.680Z,100.00
2023-04-20T02:05:53.949Z,100.00
2023-04-20T02:15:57.360Z,100.00
2023-04-20T02:25:59.533Z,100.00
2023-04-20T02:36:01.982Z,100.00
2023-04-20T02:46:04.173Z,100.00
2023-04-20T02:56:06.378Z,100.00
2023-04-20T03:06:08.576Z,100.00
2023-04-20T03:16:11.253Z,100.00
2023-04-20T03:26:13.779Z,100.00
2023-04-20T03:36:16.006Z,100.00
2023-04-20T03:46:18.738Z,100.00
2023-04-20T03:56:21.346Z,100.00
2023-04-20T04:06:23.629Z,100.00
2023-04-20T04:16:25.632Z,100.00
2023-04-20T04:26:28.053Z,100.00
2023-04-20T04:36:30.477Z,100.00
2023-04-20T04:46:34.196Z,100.00
2023-04-20T04:56:36.844Z,100.00
2023-04-20T05:06:39.008Z,100.00
2023-04-20T05:16:41.670Z,100.00
2023-04-20T05:26:44.415Z,100.00
2023-04-20T05:36:47.253Z,100.00
2023-04-20T05:46:50.601Z,100.00
2023-04-20T05:56:53.036Z,100.00
2023-04-20T06:06:55.409Z,100.00
2023-04-20T06:16:57.673Z,100.00
2023-04-20T06:26:59.782Z,100.00
2023-04-20T06:37:02.048Z,100.00
2023-04-20T06:47:04.212Z,100.00
2023-04-20T06:57:06.521Z,100.00
2023-04-20T07:07:08.765Z,100.00
2023-04-20T07:17:11.055Z,100.00
2023-04-20T07:27:13.327Z,100.00
2023-04-20T07:37:15.856Z,100.00
2023-04-20T07:47:17.985Z,100.00
2023-04-20T07:57:22.994Z,100.00
2023-04-20T08:07:25.577Z,100.00
2023-04-20T08:17:28.580Z,100.00
2023-04-20T08:27:30.981Z,100.00
2023-04-20T08:37:33.333Z,100.00
2023-04-20T08:47:36.192Z,100.00
2023-04-20T08:57:38.522Z,100.00
2023-04-20T09:07:40.968Z,100.00
2023-04-20T09:17:43.573Z,100.00
2023-04-20T09:27:57.748Z,100.00
2023-04-20T09:38:00.109Z,100.00
2023-04-20T09:48:05.162Z,100.00
2023-04-20T09:58:07.576Z,100.00
2023-04-20T10:08:09.849Z,100.00
2023-04-20T10:18:19.663Z,100.00
2023-04-20T10:28:22.384Z,100.00
2023-04-20T10:38:32.189Z,100.00
2023-04-20T10:48:35.019Z,100.00
2023-04-20T10:58:37.558Z,100.00
2023-04-20T11:08:43.990Z,100.00
2023-04-20T11:18:51.922Z,100.00
2023-04-20T11:28:56.183Z,100.00
2023-04-20T11:39:07.651Z,100.00
2023-04-20T11:49:09.939Z,100.00
2023-04-20T11:59:21.920Z,100.00
2023-04-20T12:09:24.835Z,100.00
2023-04-20T12:19:27.320Z,100.00
2023-04-20T12:29:31.708Z,100.00
2023-04-20T12:39:34.117Z,97.51
2023-04-20T12:49:36.729Z,97.50
2023-04-20T12:59:39.141Z,84.17
2023-04-20T13:09:41.457Z,94.52
2023-04-20T13:19:44.030Z,100.00
2023-04-20T13:29:46.791Z,100.00
2023-04-20T13:39:49.100Z,98.72
2023-04-20T13:49:51.669Z,100.00
2023-04-20T13:59:54.172Z,98.05
2023-04-20T14:09:56.882Z,99.51
2023-04-20T14:19:59.568Z,93.48
2023-04-20T14:30:02.162Z,100.00
2023-04-20T14:40:07.620Z,95.41
2023-04-20T14:50:10.444Z,100.00
2023-04-20T15:00:14.157Z,100.00
2023-04-20T15:10:18.022Z,100.00
2023-04-20T15:20:20.947Z,96.37
2023-04-20T15:30:23.763Z,84.53
2023-04-20T15:40:27.872Z,83.94
2023-04-20T15:50:30.438Z,80.57
2023-04-20T16:00:32.993Z,75.36
2023-04-20T16:10:35.696Z,74.85
2023-04-20T16:20:39.466Z,79.70
2023-04-20T16:30:46.385Z,73.77
2023-04-20T16:40:49.581Z,80.60
2023-04-20T16:50:52.006Z,82.28
2023-04-20T17:00:54.505Z,68.69
2023-04-20T17:10:56.778Z,75.37
2023-04-20T17:20:58.965Z,85.46
2023-04-20T17:31:01.560Z,91.52
2023-04-20T17:41:04.207Z,100.00
2023-04-20T17:51:06.718Z,100.00
2023-04-20T18:01:09.274Z,100.00
2023-04-20T18:11:11.859Z,100.00
2023-04-20T18:21:14.702Z,100.00
2023-04-20T18:31:17.185Z,100.00
2023-04-20T18:41:19.650Z,100.00
2023-04-20T18:51:24.098Z,100.00
2023-04-20T19:01:27.651Z,100.00
2023-04-20T19:11:33.048Z,100.00
2023-04-20T19:21:35.912Z,100.00
2023-04-20T19:31:40.571Z,100.00
2023-04-20T19:41:43.046Z,100.00
2023-04-20T19:51:45.682Z,100.00
2023-04-20T20:01:50.587Z,100.00
2023-04-20T20:11:53.440Z,100.00
2023-04-20T20:21:55.942Z,100.00
2023-04-20T20:31:58.264Z,100.00
2023-04-20T20:42:02.300Z,100.00
2023-04-20T20:52:04.783Z,100.00
2023-04-20T21:02:07.102Z,100.00
2023-04-20T21:12:09.498Z,100.00
2023-04-20T21:22:11.937Z,100.00
2023-04-20T21:32:14.350Z,100.00
2023-04-20T21:42:16.800Z,100.00
2023-04-20T21:52:19.020Z,100.00
2023-04-20T22:02:21.550Z,100.00
2023-04-20T22:12:38.398Z,100.00
2023-04-20T22:22:42.295Z,100.00
2023-04-20T22:32:44.590Z,100.00
2023-04-20T22:42:46.754Z,100.00
2023-04-20T22:52:50.163Z,100.00
2023-04-20T23:02:52.665Z,100.00
2023-04-20T23:12:55.576Z,100.00
2023-04-20T23:22:57.764Z,100.00
2023-04-20T23:33:00.027Z,100.00
2023-04-20T23:43:02.269Z,100.00
2023-04-20T23:53:05.965Z,100.00
